Flight Track Log - Related Links

Times and Time Zones

All times are in EDT time to prevent confusion due to time zone crossing. See the F-HPJG flight status page for this flight to view local times or setup timezone preferences in your user account.

Time Position Orientation Groundspeed Altitude Reporting Facility
EDT Latitude Longitude Course Direction KTS MPH feet Rate Location/Type
Fri 07:17:50 PM 33.9450 -118.4490 262° West 150 173 800  Level FlightAware ADS-B
Fri 07:18:32 PM 33.9410 -118.4830 262° West 155 178 1,700 966 Climbing FlightAware ADS-B
Fri 07:19:17 PM 33.9300 -118.5260 253° West 180 207 2,200 522 Climbing FlightAware ADS-B
Fri 07:19:41 PM 33.9220 -118.5450 243° Southwest 180 207 2,300 1,571 Climbing FlightAware ADS-B
Fri 07:19:59 PM 33.9080 -118.5750 241° Southwest 241 277 3,300 2,936 Climbing FlightAware ADS-B
Fri 07:20:28 PM 33.8920 -118.6090 240° Southwest 240 276 4,600 2,488 Climbing FlightAware ADS-B
Fri 07:20:40 PM 33.8810 -118.6190 217° Southwest 242 278 5,000 1,929 Climbing FlightAware ADS-B
Fri 07:20:56 PM 33.8630 -118.6240 193° South 253 291 5,500 1,929 Climbing FlightAware ADS-B
Fri 07:21:08 PM 33.8490 -118.6210 170° South 257 296 5,900 2,000 Climbing FlightAware ADS-B
Fri 07:21:35 PM 33.8220 -118.6010 148° Southeast 270 311 6,800 1,909 Climbing FlightAware ADS-B
Fri 07:21:52 PM 33.8130 -118.5770 114° Southeast 276 318 7,300 2,195 Climbing FlightAware ADS-B
Fri 07:22:16 PM 33.8070 -118.5410 101° East 272 313 8,300 2,308 Climbing FlightAware ADS-B
Fri 07:22:44 PM 33.8040 -118.5000 95° East 273 314 9,300 2,000 Climbing FlightAware ADS-B
Fri 07:23:28 PM 33.8230 -118.4370 70° East 285 328 10,700 1,714 Climbing FlightAware ADS-B
Fri 07:24:08 PM 33.8600 -118.3880 48° Northeast 306 352 11,700 1,286 Climbing FlightAware ADS-B
Fri 07:24:52 PM 33.9120 -118.3380 39° Northeast 343 395 12,500 1,143 Climbing FlightAware ADS-B
Fri 07:25:32 PM 33.9610 -118.2830 43° Northeast 371 427 13,300 1,214 Climbing FlightAware ADS-B
Fri 07:26:16 PM 34.0160 -118.2190 44° Northeast 395 455 14,200 1,214 Climbing FlightAware ADS-B
Fri 07:26:56 PM 34.0730 -118.1560 42° Northeast 420 483 15,000 1,317 Climbing FlightAware ADS-B
Fri 07:27:38 PM 34.1300 -118.0850 46° Northeast 432 497 16,000 1,500 Climbing FlightAware ADS-B
Fri 07:28:24 PM 34.1830 -117.9920 55° Northeast 444 511 17,200 1,953 Climbing FlightAware ADS-B
Fri 07:29:04 PM 34.2290 -117.9090 56° Northeast 440 506 18,800 1,929 Climbing FlightAware ADS-B
Fri 07:29:48 PM 34.2780 -117.8220 56° Northeast 446 513 19,900 1,500 Climbing FlightAware ADS-B
Fri 07:30:28 PM 34.3260 -117.7360 56° Northeast 455 524 20,900 1,558 Climbing FlightAware ADS-B
Fri 07:31:05 PM 34.3690 -117.6590 56° Northeast 459 528 21,900 1,571 Climbing FlightAware ADS-B
Fri 07:31:52 PM 34.4260 -117.5560 56° Northeast 464 534 23,100 1,385 Climbing FlightAware ADS-B
Fri 07:32:36 PM 34.4790 -117.4610 56° Northeast 473 544 24,000 1,286 Climbing FlightAware ADS-B
Fri 07:33:16 PM 34.5270 -117.3740 56° Northeast 481 554 24,900 1,463 Climbing FlightAware ADS-B
Fri 07:33:58 PM 34.5800 -117.2780 56° Northeast 481 554 26,000 1,385 Climbing FlightAware ADS-B
Fri 07:34:34 PM 34.6240 -117.1970 57° Northeast 488 562 26,700 1,047 Climbing FlightAware ADS-B
Fri 07:35:24 PM 34.6880 -117.0820 56° Northeast 498 573 27,500 1,091 Climbing FlightAware ADS-B
Fri 07:36:02 PM 34.7370 -116.9920 56° Northeast 498 573 28,300 1,244 Climbing FlightAware ADS-B
Fri 07:36:46 PM 34.7920 -116.8910 56° Northeast 500 575 29,200 1,214 Climbing FlightAware ADS-B
Fri 07:37:26 PM 34.8440 -116.7950 57° Northeast 503 579 30,000 1,373 Climbing FlightAware ADS-B
Fri 07:38:09 PM 34.8990 -116.6940 56° Northeast 498 573 31,100 1,586 Climbing FlightAware ADS-B
Fri 07:38:53 PM 34.9540 -116.5940 56° Northeast 488 562 32,300 1,429 Climbing FlightAware ADS-B
Fri 07:39:33 PM 35.0150 -116.5120 48° Northeast 490 564 33,100 1,357 Climbing FlightAware ADS-B
Fri 07:40:17 PM 35.0840 -116.4260 46° Northeast 480 552 34,200 1,143 Climbing FlightAware ADS-B
Fri 07:40:57 PM 35.1480 -116.3470 45° Northeast 485 558 34,700 578 Climbing FlightAware ADS-B
Fri 07:41:40 PM 35.2130 -116.2650 46° Northeast 490 564 35,000 214 Climbing FlightAware ADS-B
Fri 07:42:21 PM 35.2800 -116.1810 46° Northeast 490 564 35,000  Level FlightAware ADS-B
Fri 07:43:05 PM 35.3500 -116.0930 46° Northeast 489 563 35,000  Level FlightAware ADS-B
Fri 07:43:45 PM 35.4110 -116.0160 46° Northeast 489 563 35,000  Level FlightAware ADS-B
Fri 07:44:29 PM 35.4820 -115.9260 46° Northeast 492 566 35,000  Level FlightAware ADS-B
Fri 07:45:05 PM 35.5400 -115.8530 46° Northeast 495 570 35,000  Level FlightAware ADS-B
Fri 07:45:54 PM 35.6150 -115.7560 46° Northeast 495 570 35,000  Level FlightAware ADS-B
Fri 07:46:33 PM 35.6790 -115.6750 46° Northeast 492 566 35,000  Level FlightAware ADS-B
Fri 07:47:15 PM 35.7450 -115.5910 46° Northeast 495 570 35,000  Level FlightAware ADS-B
Fri 07:47:56 PM 35.8090 -115.5090 46° Northeast 493 567 35,000  Level FlightAware ADS-B
Fri 07:48:37 PM 35.8750 -115.4240 46° Northeast 492 566 35,000  Level FlightAware ADS-B
Fri 07:49:22 PM 35.9440 -115.3350 46° Northeast 491 565 35,000  Level FlightAware ADS-B
Fri 07:50:02 PM 36.0060 -115.2540 47° Northeast 492 566 35,000  Level FlightAware ADS-B
Fri 07:50:41 PM 36.0670 -115.1750 46° Northeast 493 567 35,000  Level FlightAware ADS-B
Fri 07:51:29 PM 36.1450 -115.0760 46° Northeast 495 570 35,000  Level FlightAware ADS-B
Fri 07:52:09 PM 36.2090 -114.9960 45° Northeast 496 571 35,000  Level FlightAware ADS-B
Fri 07:52:53 PM 36.2810 -114.9050 46° Northeast 495 570 35,000  Level FlightAware ADS-B
Fri 07:53:33 PM 36.3450 -114.8230 46° Northeast 498 573 35,000  Level FlightAware ADS-B
Fri 07:54:16 PM 36.4110 -114.7380 46° Northeast 500 575 35,000  Level FlightAware ADS-B
Fri 07:54:56 PM 36.4750 -114.6540 47° Northeast 499 574 35,000  Level FlightAware ADS-B
Fri 07:55:40 PM 36.5470 -114.5600 46° Northeast 497 572 35,000  Level FlightAware ADS-B
Fri 07:56:21 PM 36.6100 -114.4770 47° Northeast 496 571 35,000  Level FlightAware ADS-B
Fri 07:57:06 PM 36.6820 -114.3830 46° Northeast 494 568 35,000 75 Level FlightAware ADS-B
Fri 07:57:41 PM 36.7380 -114.3130 45° Northeast 501 577 35,100 600 Climbing FlightAware ADS-B
Fri 07:58:26 PM 36.8230 -114.2320 37° Northeast 505 581 35,800 882 Climbing FlightAware ADS-B
Fri 07:59:23 PM 36.9330 -114.1470 32° Northeast 501 577 36,600 688 Climbing FlightAware ADS-B
Fri 08:00:02 PM 37.0090 -114.0870 32° Northeast 505 581 36,900 312 Climbing FlightAware ADS-B
Fri 08:00:40 PM 37.0880 -114.0260 32° Northeast 494 568 37,000 73 Climbing FlightAware ADS-B
Fri 08:01:24 PM 37.1730 -113.9600 32° Northeast 497 572 37,000  Level FlightAware ADS-B
Fri 08:02:12 PM 37.2650 -113.8880 32° Northeast 497 572 37,000  Level FlightAware ADS-B
Fri 08:03:11 PM 37.3680 -113.8070 32° Northeast 497 572 37,000  Level FlightAware ADS-B
Fri 08:03:50 PM 37.4560 -113.7380 32° Northeast 498 573 37,000  Level FlightAware ADS-B
Fri 08:04:32 PM 37.5400 -113.6710 32° Northeast 498 573 37,000  Level FlightAware ADS-B
Fri 08:05:09 PM 37.6020 -113.6220 32° Northeast 498 573 37,000  Level FlightAware ADS-B
Fri 08:06:11 PM 37.7050 -113.5410 32° Northeast 498 573 37,000  Level FlightAware ADS-B
Fri 08:06:47 PM 37.7650 -113.4940 32° Northeast 498 573 37,000  Level FlightAware ADS-B
Fri 08:07:35 PM 37.8450 -113.4310 32° Northeast 498 573 37,000  Level FlightAware ADS-B
Fri 08:08:11 PM 37.9040 -113.3830 33° Northeast 498 573 37,000  Level FlightAware ADS-B
Fri 08:09:01 PM 37.9870 -113.3180 32° Northeast 498 573 37,000  Level FlightAware ADS-B
Fri 08:09:35 PM 38.0440 -113.2730 32° Northeast 498 573 37,000  Level FlightAware ADS-B
Fri 08:10:38 PM 38.1490 -113.1900 32° Northeast 498 573 37,000  Level FlightAware ADS-B
Fri 08:11:02 PM 38.1880 -113.1580 33° Northeast 498 573 37,000  Level FlightAware ADS-B
Fri 08:11:49 PM 38.2660 -113.0960 32° Northeast 498 573 37,000  Level FlightAware ADS-B
Fri 08:12:24 PM 38.3250 -113.0500 31° Northeast 498 573 37,000  Level FlightAware ADS-B
Fri 08:13:11 PM 38.4030 -112.9870 32° Northeast 498 573 37,000  Level FlightAware ADS-B
Fri 08:13:47 PM 38.4620 -112.9400 32° Northeast 498 573 37,000  Level FlightAware ADS-B
Fri 08:14:33 PM 38.5390 -112.8790 32° Northeast 498 573 37,000  Level FlightAware ADS-B
Fri 08:15:29 PM 38.7550 -112.5314 32° Northeast 511 588 37,000  Level Salt Lake Center
Fri 08:16:31 PM 38.8608 -112.4111 41° Northeast 509 586 37,000  Level Salt Lake Center
Fri 08:17:33 PM 38.9678 -112.2936 40° Northeast 506 582 37,000  Level Salt Lake Center
Fri 08:23:10 PM 39.5570 -111.5940 40° Northeast 503 579 37,000  Level FlightAware ADS-B
Fri 08:23:52 PM 39.6290 -111.5080 43° Northeast 505 581 37,000  Level FlightAware ADS-B
Fri 08:24:32 PM 39.6930 -111.4300 43° Northeast 505 581 37,000  Level FlightAware ADS-B
Fri 08:25:13 PM 39.7650 -111.3420 43° Northeast 508 585 37,000  Level FlightAware ADS-B
Fri 08:25:59 PM 39.8450 -111.2430 44° Northeast 508 585 37,000  Level FlightAware ADS-B
Fri 08:26:42 PM 39.9190 -111.1520 43° Northeast 507 583 37,000  Level FlightAware ADS-B
Fri 08:27:22 PM 39.9870 -111.0680 43° Northeast 509 586 37,000  Level FlightAware ADS-B
Fri 08:28:04 PM 40.0580 -110.9800 43° Northeast 511 588 37,000  Level FlightAware ADS-B
Fri 08:28:44 PM 40.1280 -110.8930 44° Northeast 515 593 37,000  Level FlightAware ADS-B
Fri 08:29:29 PM 40.2030 -110.8000 43° Northeast 516 594 37,000  Level FlightAware ADS-B
Fri 08:30:08 PM 40.2740 -110.7110 44° Northeast 517 595 37,000  Level FlightAware ADS-B
Fri 08:31:06 PM 40.3660 -110.5950 44° Northeast 520 598 37,000  Level FlightAware ADS-B
Fri 08:31:47 PM 40.4410 -110.5010 44° Northeast 519 597 37,000  Level FlightAware ADS-B
Fri 08:32:32 PM 40.5210 -110.4000 44° Northeast 514 592 37,000  Level FlightAware ADS-B
Fri 08:33:08 PM 40.5820 -110.3230 44° Northeast 515 593 37,000  Level FlightAware ADS-B
Fri 08:33:53 PM 40.6610 -110.2230 44° Northeast 517 595 37,000  Level FlightAware ADS-B
Fri 08:34:38 PM 40.7370 -110.1260 44° Northeast 517 595 37,000  Level FlightAware ADS-B
Fri 08:35:15 PM 40.7910 -110.0570 44° Northeast 518 596 37,000  Level FlightAware ADS-B
Fri 08:36:04 PM 40.8620 -109.9650 44° Northeast 518 596 37,000  Level FlightAware ADS-B
Fri 08:36:40 PM 40.9150 -109.8980 44° Northeast 518 596 37,000  Level FlightAware ADS-B
Fri 08:37:29 PM 40.9870 -109.8060 44° Northeast 518 596 37,000  Level FlightAware ADS-B
Fri 08:38:05 PM 41.0400 -109.7390 44° Northeast 518 596 37,000  Level FlightAware ADS-B
Fri 08:38:42 PM 41.0940 -109.6690 44° Northeast 518 596 37,000  Level FlightAware ADS-B
Fri 08:39:28 PM 41.1610 -109.5830 44° Northeast 518 596 37,000  Level FlightAware ADS-B
Fri 08:40:06 PM 41.2170 -109.5110 44° Northeast 518 596 37,000  Level FlightAware ADS-B
Fri 08:40:54 PM 41.2870 -109.4210 44° Northeast 518 596 37,000  Level FlightAware ADS-B
Fri 08:41:40 PM 41.3550 -109.3340 44° Northeast 518 596 37,000  Level FlightAware ADS-B
Fri 08:42:16 PM 41.4070 -109.2660 44° Northeast 518 596 37,000  Level FlightAware ADS-B
Fri 08:43:05 PM 41.4790 -109.1740 44° Northeast 518 596 37,000  Level FlightAware ADS-B
Fri 08:43:42 PM 41.5330 -109.1040 44° Northeast 518 596 37,000  Level FlightAware ADS-B
Fri 08:44:29 PM 41.6020 -109.0150 44° Northeast 518 596 37,000  Level FlightAware ADS-B
Fri 08:45:05 PM 41.6550 -108.9470 44° Northeast 518 596 37,000  Level FlightAware ADS-B
Fri 08:46:21 PM 41.8933 -108.4881 44° Northeast 521 600 37,000  Level Salt Lake Center
Fri 08:47:22 PM 41.9753 -108.3394 53° Northeast 519 597 37,000  Level Salt Lake Center
Fri 08:48:24 PM 42.0611 -108.1908 52° Northeast 524 603 37,000  Level Salt Lake Center
Fri 08:49:26 PM 42.1550 -108.0178 54° Northeast 513 590 37,000  Level Salt Lake Center
Fri 08:50:27 PM 42.2392 -107.8706 52° Northeast 516 594 37,000  Level Salt Lake Center
Fri 08:51:29 PM 42.3325 -107.6989 54° Northeast 512 589 37,000  Level Salt Lake Center
Fri 08:52:30 PM 42.4125 -107.5519 54° Northeast 508 585 37,000  Level Salt Lake Center
Fri 08:53:32 PM 42.5069 -107.3808 53° Northeast 508 585 37,000  Level Salt Lake Center
Fri 08:54:33 PM 42.5875 -107.2339 53° Northeast 507 583 37,000  Level Salt Lake Center
Fri 08:55:35 PM 42.6650 -107.0864 54° Northeast 503 579 37,000  Level Salt Lake Center
Fri 08:56:37 PM 42.7525 -106.9228 54° Northeast 498 573 37,000  Level Salt Lake Center
Fri 08:57:38 PM 42.8314 -106.7761 54° Northeast 500 575 37,000  Level Salt Lake Center
Fri 08:58:40 PM 42.9214 -106.6050 54° Northeast 498 573 37,000  Level Salt Lake Center
Fri 08:59:41 PM 42.9989 -106.4583 54° Northeast 497 572 37,000  Level Salt Lake Center
Fri 09:00:43 PM 43.0900 -106.2867 54° Northeast 498 573 37,000  Level Salt Lake Center
Fri 09:02:00 PM 43.1856 -106.0778 58° Northeast 504 580 37,000  Level Denver Center
Fri 09:03:01 PM 43.2578 -105.9228 57° Northeast 504 580 37,000  Level Denver Center
Fri 09:04:03 PM 43.3306 -105.7664 57° Northeast 505 581 37,000  Level Denver Center
Fri 09:05:04 PM 43.4142 -105.5847 58° Northeast 504 580 37,000  Level Denver Center
Fri 09:06:06 PM 43.4861 -105.4286 58° Northeast 504 580 37,000  Level Denver Center
Fri 09:07:08 PM 43.5692 -105.2469 58° Northeast 503 579 37,000  Level Denver Center
Fri 09:08:09 PM 43.6406 -105.0889 58° Northeast 503 579 37,000  Level Denver Center
Fri 09:09:11 PM 43.7117 -104.9300 58° Northeast 505 581 37,000  Level Denver Center
Fri 09:10:12 PM 43.7936 -104.7461 58° Northeast 504 580 37,000  Level Denver Center
Fri 09:11:14 PM 43.8642 -104.5867 58° Northeast 504 580 37,000  Level Denver Center
Fri 09:12:28 PM 43.9464 -104.4011 58° Northeast 505 581 37,000  Level Denver Center
Fri 09:13:30 PM 44.0286 -104.2183 58° Northeast 503 579 37,000  Level Denver Center
Fri 09:14:31 PM 44.1119 -104.0292 58° Northeast 509 586 37,000  Level Denver Center
Fri 09:15:33 PM 44.1814 -103.8667 59° Northeast 511 588 37,000  Level Denver Center
Fri 09:16:35 PM 44.2639 -103.6775 59° Northeast 511 588 37,000  Level Denver Center
Fri 09:17:36 PM 44.3336 -103.5150 59° Northeast 510 587 37,000  Level Denver Center
Fri 09:18:38 PM 44.4142 -103.3258 59° Northeast 508 585 37,000  Level Denver Center
Fri 09:19:39 PM 44.4722 -103.1875 60° Northeast 506 582 37,000  Level Denver Center
Fri 09:20:42 PM 44.5578 -102.9825 60° Northeast 508 585 37,000  Level Denver Center
Fri 09:21:43 PM 44.6292 -102.8150 59° Northeast 502 578 37,000  Level Denver Center
Fri 09:22:45 PM 44.7006 -102.6447 59° Northeast 503 579 37,000  Level Denver Center
Fri 09:23:47 PM 44.7692 -102.4756 60° Northeast 501 577 37,000  Level Denver Center
Fri 09:24:49 PM 44.8400 -102.3067 59° Northeast 501 577 37,000  Level Denver Center
Fri 09:25:32 PM 44.8956 -102.1658 61° Northeast 501 577 37,000  Level Minneapolis Center
Fri 09:26:34 PM 44.9647 -101.9956 60° Northeast 500 575 37,000  Level Minneapolis Center
Fri 09:27:35 PM 45.0339 -101.8272 60° Northeast 492 566 37,000  Level Minneapolis Center
Fri 09:28:37 PM 45.1181 -101.6808 51° Northeast 473 544 37,000  Level Minneapolis Center
Fri 09:29:39 PM 45.2167 -101.5617 40° Northeast 460 529 37,000  Level Minneapolis Center
Fri 09:30:53 PM 45.3592 -101.4025 38° Northeast 466 536 37,000  Level Minneapolis Center
Fri 09:31:55 PM 45.4611 -101.2881 38° Northeast 466 536 37,000  Level Minneapolis Center
Fri 09:32:57 PM 45.5636 -101.1728 38° Northeast 468 539 37,000  Level Minneapolis Center
Fri 09:33:59 PM 45.6661 -101.0564 38° Northeast 470 541 37,000  Level Minneapolis Center
Fri 09:35:00 PM 45.7692 -100.9394 38° Northeast 471 542 37,000  Level Minneapolis Center
Fri 09:36:02 PM 45.8714 -100.8225 39° Northeast 467 537 37,000  Level Minneapolis Center
Fri 09:37:04 PM 45.9725 -100.7061 39° Northeast 464 534 37,000  Level Minneapolis Center
Fri 09:38:05 PM 46.0731 -100.5903 39° Northeast 462 532 37,000  Level Minneapolis Center
Fri 09:39:07 PM 46.1731 -100.4744 39° Northeast 459 528 37,000  Level Minneapolis Center
Fri 09:40:09 PM 46.2919 -100.3358 39° Northeast 455 524 37,000  Level Minneapolis Center
Fri 09:41:10 PM 46.3900 -100.2208 39° Northeast 452 520 37,000  Level Minneapolis Center
Fri 09:42:12 PM 46.4881 -100.1053 39° Northeast 456 525 37,000  Level Minneapolis Center
Fri 09:43:14 PM 46.5792 -99.9981 39° Northeast 462 532 37,000  Level Minneapolis Center
Fri 09:44:15 PM 46.6961 -99.8586 39° Northeast 467 537 37,000  Level Minneapolis Center
Fri 09:45:17 PM 46.7967 -99.7381 39° Northeast 469 540 37,000  Level Minneapolis Center
Fri 09:51:22 PM 47.4230 -98.9760 39° Northeast 474 545 37,000  Level FlightAware ADS-B
Fri 09:52:04 PM 47.4940 -98.8880 40° Northeast 472 543 37,000  Level FlightAware ADS-B
Fri 09:52:48 PM 47.5640 -98.8000 40° Northeast 471 542 37,000  Level FlightAware ADS-B
Fri 09:53:24 PM 47.6250 -98.7240 40° Northeast 469 540 37,000  Level FlightAware ADS-B
Fri 09:54:12 PM 47.7060 -98.6230 40° Northeast 474 545 37,000  Level FlightAware ADS-B
Fri 09:54:52 PM 47.7740 -98.5380 40° Northeast 477 549 37,000  Level FlightAware ADS-B
Fri 09:55:44 PM 47.8620 -98.4270 40° Northeast 480 552 37,000  Level FlightAware ADS-B
Fri 09:56:26 PM 47.9330 -98.3360 41° Northeast 481 554 37,000  Level FlightAware ADS-B
Fri 09:57:14 PM 48.0030 -98.2170 49° Northeast 507 583 37,000  Level FlightAware ADS-B
Fri 09:57:52 PM 48.0460 -98.0990 61° Northeast 500 575 37,000  Level FlightAware ADS-B
Fri 09:58:36 PM 48.0970 -97.9680 60° Northeast 492 566 37,000  Level FlightAware ADS-B
Fri 09:59:20 PM 48.1460 -97.8380 61° Northeast 493 567 37,000  Level FlightAware ADS-B
Fri 09:59:56 PM 48.1860 -97.7330 60° Northeast 496 571 37,000  Level FlightAware ADS-B
Fri 10:01:49 PM 48.2980 -97.4400 60° Northeast 496 571 37,000  Level FlightAware ADS-B
Fri 10:04:08 PM 48.4440 -97.0360 61° Northeast 502 578 37,000  Level FlightAware ADS-B
Fri 10:04:48 PM 48.5120 -96.8480 61° Northeast 503 579 37,000  Level FlightAware ADS-B
Fri 10:05:28 PM 48.5570 -96.7250 61° Northeast 498 573 37,000  Level FlightAware ADS-B
Fri 10:06:12 PM 48.6060 -96.5900 61° Northeast 495 570 37,000  Level FlightAware ADS-B
Fri 10:06:57 PM 48.6540 -96.4540 62° Northeast 494 568 37,000  Level FlightAware ADS-B
Fri 10:07:37 PM 48.6980 -96.3320 61° Northeast 493 567 37,000  Level FlightAware ADS-B
Fri 10:08:27 PM 48.7500 -96.1850 62° Northeast 494 568 37,000  Level FlightAware ADS-B
Fri 10:09:17 PM 48.8060 -96.0260 62° Northeast 496 571 37,000  Level FlightAware ADS-B
Fri 10:09:57 PM 48.8480 -95.9070 62° Northeast 496 571 37,000  Level FlightAware ADS-B
Fri 10:10:37 PM 48.8910 -95.7830 62° Northeast 490 564 37,000  Level FlightAware ADS-B
Fri 10:11:18 PM 48.9290 -95.6750 62° Northeast 489 563 37,000  Level FlightAware ADS-B
Fri 10:12:06 PM 48.9720 -95.5510 62° Northeast 489 563 37,000  Level FlightAware ADS-B
Fri 10:12:43 PM 49.0060 -95.4550 62° Northeast 489 563 37,000  Level FlightAware ADS-B
Fri 10:13:19 PM 49.0380 -95.3620 62° Northeast 489 563 37,000  Level FlightAware ADS-B
Fri 10:14:07 PM 49.0820 -95.2370 62° Northeast 489 563 37,000  Level FlightAware ADS-B
Fri 10:14:43 PM 49.1140 -95.1440 62° Northeast 489 563 37,000  Level FlightAware ADS-B
Fri 10:16:07 PM 49.1900 -94.9260 62° Northeast 489 563 37,000  Level FlightAware ADS-B
Fri 10:17:08 PM 49.2450 -94.7670 62° Northeast 489 563 37,000  Level FlightAware ADS-B
Fri 10:17:56 PM 49.2880 -94.6430 62° Northeast 489 563 37,000  Level FlightAware ADS-B
Fri 10:18:32 PM 49.3210 -94.5490 62° Northeast 489 563 37,000  Level FlightAware ADS-B
Fri 10:19:10 PM 49.3550 -94.4500 62° Northeast 489 563 37,000  Level FlightAware ADS-B
Fri 10:19:59 PM 49.3990 -94.3220 62° Northeast 489 563 37,000  Level FlightAware ADS-B
Fri 10:20:36 PM 49.4330 -94.2250 62° Northeast 489 563 37,000  Level FlightAware ADS-B
Fri 10:22:02 PM 49.6333 -93.7333 62° Northeast 480 552 37,000  Level Winnipeg Center
Fri 10:23:02 PM 49.7167 -93.5833 49° Northeast 470 541 37,000  Level Winnipeg Center
Fri 10:24:02 PM 49.8000 -93.4333 49° Northeast 470 541 37,000  Level Winnipeg Center
Fri 10:25:02 PM 49.9000 -93.2833 44° Northeast 480 552 37,000  Level Winnipeg Center
Fri 10:26:02 PM 49.9833 -93.1167 52° Northeast 480 552 37,000  Level Winnipeg Center
Fri 10:27:02 PM 50.0667 -92.9833 46° Northeast 480 552 37,000  Level Winnipeg Center
Fri 10:28:02 PM 50.1500 -92.8167 52° Northeast 480 552 37,000  Level Winnipeg Center
Fri 10:29:02 PM 50.2500 -92.6500 47° Northeast 480 552 37,000  Level Winnipeg Center
Fri 10:30:02 PM 50.3333 -92.4833 52° Northeast 480 552 37,000  Level Winnipeg Center
Fri 10:31:02 PM 50.4167 -92.3333 49° Northeast 480 552 37,000  Level Winnipeg Center
Fri 10:32:02 PM 50.5000 -92.1833 49° Northeast 470 541 37,000  Level Winnipeg Center
Fri 10:33:02 PM 50.5833 -92.0000 54° Northeast 470 541 37,000  Level Winnipeg Center
Fri 10:34:02 PM 50.6667 -91.8667 45° Northeast 470 541 37,000  Level Winnipeg Center
Fri 10:35:02 PM 50.7667 -91.7000 46° Northeast 480 552 37,000  Level Winnipeg Center
Fri 10:36:02 PM 50.8333 -91.5500 55° Northeast 480 552 37,000  Level Winnipeg Center
Fri 10:37:02 PM 50.9333 -91.3833 46° Northeast 480 552 37,000  Level Winnipeg Center
Fri 10:38:02 PM 51.0167 -91.2167 51° Northeast 480 552 37,000  Level Winnipeg Center
Fri 10:39:02 PM 51.1000 -91.0500 51° Northeast 480 552 37,000  Level Winnipeg Center
Fri 10:40:02 PM 51.1833 -90.9000 48° Northeast 480 552 37,000  Level Winnipeg Center
Fri 10:41:02 PM 51.2667 -90.7333 51° Northeast 480 552 37,000  Level Winnipeg Center
Fri 10:42:02 PM 51.3500 -90.5500 54° Northeast 480 552 37,000  Level Winnipeg Center
Fri 10:43:02 PM 51.4333 -90.4000 48° Northeast 480 552 37,000  Level Winnipeg Center
Fri 10:44:02 PM 51.5167 -90.2333 51° Northeast 480 552 37,000  Level Winnipeg Center
Fri 10:45:02 PM 51.6000 -90.0667 51° Northeast 480 552 37,000  Level Winnipeg Center
Fri 10:46:02 PM 51.6833 -89.8833 54° Northeast 480 552 37,000  Level Winnipeg Center
Fri 10:47:02 PM 51.7833 -89.7000 49° Northeast 480 552 37,000  Level Winnipeg Center
Fri 10:48:02 PM 51.8500 -89.5333 57° Northeast 480 552 37,000  Level Winnipeg Center
Fri 10:49:02 PM 51.9333 -89.3833 48° Northeast 490 564 37,000  Level Winnipeg Center
Fri 10:50:02 PM 52.0333 -89.2000 48° Northeast 480 552 37,000  Level Winnipeg Center
Fri 10:51:02 PM 52.1000 -89.0167 59° Northeast 480 552 37,000  Level Winnipeg Center
Fri 10:51:38 PM 52.1500 -88.8833 59° Northeast 490 564 37,000  Level Edmonton Center
Fri 10:52:38 PM 52.2167 -88.7167 57° Northeast 480 552 37,000  Level Edmonton Center
Fri 10:53:38 PM 52.3000 -88.5500 51° Northeast 490 564 37,000  Level Edmonton Center
Fri 10:54:38 PM 52.3833 -88.3667 53° Northeast 490 564 37,000  Level Edmonton Center
Fri 10:55:38 PM 52.4667 -88.1833 53° Northeast 490 564 37,000  Level Edmonton Center
Fri 10:56:38 PM 52.5500 -88.0167 51° Northeast 490 564 37,000  Level Edmonton Center
Fri 10:57:38 PM 52.6167 -87.8167 61° Northeast 490 564 37,000  Level Edmonton Center
Fri 10:58:38 PM 52.7167 -87.6333 48° Northeast 490 564 37,000  Level Edmonton Center
Fri 10:59:38 PM 52.7833 -87.4500 59° Northeast 490 564 37,000  Level Edmonton Center
Fri 11:00:38 PM 52.8667 -87.2833 50° Northeast 490 564 37,000  Level Edmonton Center
Fri 11:01:38 PM 52.9500 -87.1000 53° Northeast 490 564 37,000  Level Edmonton Center
Fri 11:02:38 PM 53.0333 -86.8833 57° Northeast 500 575 37,000  Level Edmonton Center
Fri 11:03:38 PM 53.1000 -86.7167 56° Northeast 500 575 37,000  Level Edmonton Center
Fri 11:04:38 PM 53.2000 -86.5167 50° Northeast 500 575 37,000  Level Edmonton Center
Fri 11:05:38 PM 53.2667 -86.3500 56° Northeast 500 575 37,000  Level Edmonton Center
Fri 11:06:38 PM 53.3500 -86.1333 57° Northeast 500 575 37,000  Level Edmonton Center
Fri 11:07:38 PM 53.4333 -85.9500 53° Northeast 500 575 37,000  Level Edmonton Center
Fri 11:08:38 PM 53.5167 -85.7500 55° Northeast 500 575 37,000  Level Edmonton Center
Fri 11:09:38 PM 53.5833 -85.5667 58° Northeast 500 575 37,000  Level Edmonton Center
Fri 11:10:38 PM 53.6667 -85.3667 55° Northeast 500 575 37,000  Level Edmonton Center
Fri 11:11:38 PM 53.7500 -85.1667 55° Northeast 500 575 37,000  Level Edmonton Center
Fri 11:12:38 PM 53.8167 -84.9833 58° Northeast 500 575 37,000  Level Edmonton Center
Fri 11:13:35 PM 53.9333 -84.9000 23° Northeast 500 575 37,000  Level Montreal Center
Fri 11:14:35 PM 54.0167 -84.7167 52° Northeast 500 575 37,000  Level Montreal Center
Fri 11:15:35 PM 54.1000 -84.5000 57° Northeast 500 575 37,000  Level Montreal Center
Fri 11:16:35 PM 54.1667 -84.3167 58° Northeast 500 575 37,000  Level Montreal Center
Fri 11:17:35 PM 54.2500 -84.1000 57° Northeast 500 575 37,000  Level Montreal Center
Fri 11:18:35 PM 54.3333 -83.9167 52° Northeast 500 575 37,000  Level Montreal Center
Fri 11:19:35 PM 54.4000 -83.7333 58° Northeast 500 575 37,000  Level Montreal Center
Fri 11:20:35 PM 54.4833 -83.5167 56° Northeast 510 587 37,000  Level Montreal Center
Fri 11:21:35 PM 54.5500 -83.2833 64° Northeast 510 587 37,000  Level Montreal Center
Fri 11:22:35 PM 54.6333 -83.1000 52° Northeast 510 587 37,000  Level Montreal Center
Fri 11:23:35 PM 54.7167 -82.8833 56° Northeast 510 587 37,000  Level Montreal Center
Fri 11:24:35 PM 54.7833 -82.6833 60° Northeast 510 587 37,000  Level Montreal Center
Fri 11:25:35 PM 54.8667 -82.4667 56° Northeast 510 587 37,000  Level Montreal Center
Fri 11:26:35 PM 54.9333 -82.2667 60° Northeast 510 587 37,000  Level Montreal Center
Fri 11:27:35 PM 55.0167 -82.0500 56° Northeast 510 587 37,000  Level Montreal Center
Fri 11:28:35 PM 55.0833 -81.8500 60° Northeast 510 587 37,000  Level Montreal Center
Fri 11:29:35 PM 55.1667 -81.6167 58° Northeast 510 587 37,000  Level Montreal Center
Fri 11:30:35 PM 55.2333 -81.4333 57° Northeast 510 587 37,000  Level Montreal Center
Fri 11:31:35 PM 55.3167 -81.2000 58° Northeast 530 610 37,000  Level Montreal Center
Fri 11:32:35 PM 55.3833 -80.9667 63° Northeast 510 587 37,000  Level Montreal Center
Fri 11:33:35 PM 55.4500 -80.7667 59° Northeast 500 575 37,000  Level Montreal Center
Fri 11:34:35 PM 55.5333 -80.5667 54° Northeast 500 575 37,000  Level Montreal Center
Fri 11:35:35 PM 55.6000 -80.3500 61° Northeast 500 575 37,000  Level Montreal Center
Fri 11:36:35 PM 55.6667 -80.1333 61° Northeast 500 575 37,000  Level Montreal Center
Fri 11:37:35 PM 55.7333 -79.9167 61° Northeast 500 575 37,000  Level Montreal Center
Fri 11:38:35 PM 55.8000 -79.7000 61° Northeast 490 564 37,000  Level Montreal Center
Fri 11:39:35 PM 55.8667 -79.5000 59° Northeast 490 564 37,000  Level Montreal Center
Fri 11:40:35 PM 55.9167 -79.2667 69° East 490 564 37,000  Level Montreal Center
Fri 11:41:35 PM 56.0000 -79.0667 53° Northeast 490 564 37,000  Level Montreal Center
Fri 11:42:35 PM 56.0500 -78.8500 67° East 490 564 37,000  Level Montreal Center
Fri 11:43:35 PM 56.1167 -78.6167 63° Northeast 480 552 37,000  Level Montreal Center
Fri 11:44:35 PM 56.1833 -78.4167 59° Northeast 490 564 37,000  Level Montreal Center
Fri 11:45:35 PM 56.2500 -78.1667 64° Northeast 490 564 37,000  Level Montreal Center
Fri 11:46:35 PM 56.3000 -77.9667 66° East 490 564 37,000  Level Montreal Center
Fri 11:47:35 PM 56.3667 -77.7167 64° Northeast 490 564 37,000  Level Montreal Center
Fri 11:48:35 PM 56.4333 -77.5167 59° Northeast 480 552 37,000  Level Montreal Center
Fri 11:49:35 PM 56.5000 -77.2667 64° Northeast 490 564 37,000  Level Montreal Center
Fri 11:50:35 PM 56.5500 -77.0833 64° Northeast 490 564 37,000  Level Montreal Center
Fri 11:51:35 PM 56.6167 -76.8500 62° Northeast 490 564 37,000  Level Montreal Center
Fri 11:52:15 PM 56.6333 -76.5833 83° East 430 495 37,000  Level Winnipeg Center
Fri 11:53:35 PM 56.7167 -76.4167 48° Northeast 490 564 37,000  Level Montreal Center
Fri 11:54:35 PM 56.7833 -76.1833 62° Northeast 470 541 37,000  Level Montreal Center
Fri 11:55:35 PM 56.8333 -75.9333 70° East 480 552 37,000  Level Montreal Center
Fri 11:56:35 PM 56.9000 -75.7167 61° Northeast 490 564 37,000  Level Montreal Center
Fri 11:57:35 PM 56.9500 -75.5000 67° East 490 564 37,000  Level Montreal Center
Fri 11:58:35 PM 57.0167 -75.2500 64° Northeast 490 564 37,000  Level Montreal Center
Fri 11:59:35 PM 57.0667 -75.0333 67° East 490 564 37,000  Level Montreal Center
Sat 12:00:35 AM 57.1333 -74.7833 64° Northeast 490 564 37,000  Level Montreal Center
Sat 12:01:25 AM 57.1667 -74.6667 62° Northeast 510 587 37,000  Level Gander Center
Sat 12:02:25 AM 57.2333 -74.4333 62° Northeast 490 564 37,000 150 Level Gander Center
Sat 12:03:25 AM 57.2833 -74.2000 68° East 500 575 37,300 600 Climbing Gander Center
Sat 12:04:25 AM 57.3333 -73.9667 68° East 510 587 38,200 700 Climbing Gander Center
Sat 12:05:25 AM 57.4000 -73.7167 64° Northeast 510 587 38,700 400 Climbing Gander Center
Sat 12:06:25 AM 57.4500 -73.4833 68° East 510 587 39,000 150 Climbing Gander Center
Sat 12:07:25 AM 57.5167 -73.2167 65° Northeast 520 598 39,000  Level Gander Center
Sat 12:08:25 AM 57.5667 -72.9833 68° East 520 598 39,000  Level Gander Center
Sat 12:09:25 AM 57.6167 -72.7167 71° East 520 598 39,000  Level Gander Center
Sat 12:10:25 AM 57.6833 -72.4833 62° Northeast 520 598 39,000  Level Gander Center
Sat 12:11:25 AM 57.7333 -72.2500 68° East 520 598 39,000  Level Gander Center
Sat 12:12:25 AM 57.7833 -71.9833 71° East 510 587 39,000  Level Gander Center
Sat 12:13:25 AM 57.8333 -71.7333 69° East 520 598 39,000  Level Gander Center
Sat 12:14:25 AM 57.8667 -71.5000 75° East 520 598 39,000  Level Gander Center
Sat 12:15:25 AM 57.9333 -71.2333 65° Northeast 520 598 39,000  Level Gander Center
Sat 12:16:25 AM 57.9833 -70.9833 69° East 520 598 39,000  Level Gander Center
Sat 12:17:25 AM 58.0333 -70.7167 70° East 520 598 39,000  Level Gander Center
Sat 12:18:25 AM 58.0833 -70.4833 68° East 520 598 39,000  Level Gander Center
Sat 12:19:25 AM 58.1333 -70.2333 69° East 520 598 39,000  Level Gander Center
Sat 12:20:25 AM 58.1833 -69.9667 70° East 520 598 39,000  Level Gander Center
Sat 12:21:25 AM 58.2333 -69.6833 71° East 520 598 39,000  Level Gander Center
Sat 12:22:25 AM 58.2833 -69.4500 68° East 520 598 39,000  Level Gander Center
Sat 12:23:25 AM 58.3333 -69.1667 71° East 520 598 39,000  Level Gander Center
Sat 12:24:25 AM 58.3833 -68.9167 69° East 520 598 39,000  Level Gander Center
Sat 12:25:25 AM 58.4333 -68.6500 70° East 520 598 39,000  Level Gander Center
Sat 12:26:25 AM 58.4833 -68.4000 69° East 520 598 39,000  Level Gander Center
Sat 12:27:25 AM 58.5167 -68.1167 77° East 520 598 39,000  Level Gander Center
Sat 12:28:25 AM 58.5500 -67.8667 76° East 520 598 39,000  Level Gander Center
Sat 12:29:25 AM 58.6000 -67.6167 69° East 520 598 39,000  Level Gander Center
Sat 12:30:25 AM 58.6500 -67.3333 71° East 520 598 39,000  Level Gander Center
Sat 12:31:25 AM 58.7000 -67.0833 69° East 520 598 39,000  Level Gander Center
Sat 12:32:25 AM 58.7500 -66.8167 70° East 530 610 39,000  Level Gander Center
Sat 12:33:25 AM 58.8000 -66.5500 70° East 530 610 39,000  Level Gander Center
Sat 12:34:25 AM 58.8667 -66.3167 61° Northeast 530 610 39,000  Level Gander Center
Sat 12:35:25 AM 58.9167 -66.0333 71° East 530 610 39,000  Level Gander Center
Sat 12:36:25 AM 58.9833 -65.7833 63° Northeast 530 610 39,000  Level Gander Center
Sat 12:37:25 AM 59.0333 -65.4833 72° East 530 610 39,000  Level Gander Center
Sat 12:38:25 AM 59.0833 -65.2333 69° East 530 610 39,000  Level Gander Center
Sat 12:39:25 AM 59.1333 -64.9500 71° East 530 610 39,000  Level Gander Center
Sat 12:40:25 AM 59.2000 -64.7000 62° Northeast 530 610 39,000  Level Gander Center
Sat 12:41:25 AM 59.2500 -64.4333 70° East 530 610 39,000  Level Gander Center
Sat 12:42:25 AM 59.2833 -64.1500 77° East 530 610 39,000  Level Gander Center
Sat 12:43:25 AM 59.3500 -63.9000 62° Northeast 540 621 39,000  Level Gander Center
Sat 12:44:25 AM 59.4000 -63.6000 72° East 530 610 39,000  Level Gander Center
Sat 12:45:25 AM 59.4500 -63.3500 68° East 530 610 39,000  Level Gander Center
Sat 12:46:25 AM 59.4833 -63.0833 76° East 530 610 39,000  Level Gander Center
Sat 12:47:25 AM 59.5500 -62.8000 65° Northeast 540 621 39,000  Level Gander Center
Sat 12:48:25 AM 59.6000 -62.5333 70° East 540 621 39,000  Level Gander Center
Sat 12:49:25 AM 59.6500 -62.2333 72° East 530 610 39,000  Level Gander Center
Sat 12:50:25 AM 59.6833 -61.9333 77° East 530 610 39,000  Level Gander Center
Sat 12:51:25 AM 59.7333 -61.6833 68° East 530 610 39,000  Level Gander Center
Sat 12:52:25 AM 59.7667 -61.4167 76° East 530 610 39,000  Level Gander Center
Sat 12:53:25 AM 59.8167 -61.1167 72° East 520 598 39,000  Level Gander Center
Sat 12:54:25 AM 59.8667 -60.8500 69° East 530 610 39,000  Level Gander Center
Sat 12:55:25 AM 59.9167 -60.5833 69° East 520 598 39,000  Level Gander Center
Sat 12:56:25 AM 59.9667 -60.2833 71° East 530 610 39,000  Level Gander Center
Sat 12:57:25 AM 60.0167 -60.0167 69° East 540 621 39,000  Level Gander Center
Sat 12:58:25 AM 60.0333 -59.7167 84° East 540 621 39,000  Level Gander Center
Sat 12:59:25 AM 60.0667 -59.4167 77° East 530 610 39,000  Level Gander Center
Sat 01:00:25 AM 60.1000 -59.1500 76° East 530 610 39,000  Level Gander Center
Sat 01:01:25 AM 60.1500 -58.8500 71° East 530 610 39,000  Level Gander Center
Sat 01:02:25 AM 60.1833 -58.5667 77° East 530 610 39,000  Level Gander Center
Sat 01:03:25 AM 60.2167 -58.3000 76° East 530 610 39,000  Level Gander Center
Sat 01:04:25 AM 60.2667 -58.0000 71° East 530 610 39,000  Level Gander Center
Sat 01:05:25 AM 60.2833 -57.7333 83° East 530 610 39,000  Level Gander Center
Sat 01:06:25 AM 60.3333 -57.4167 72° East 530 610 39,000  Level Gander Center
Sat 01:07:25 AM 60.3500 -57.1167 83° East 530 610 39,000  Level Gander Center
Sat 01:08:25 AM 60.4000 -56.8333 70° East 530 610 39,000  Level Gander Center
Sat 01:09:25 AM 60.4167 -56.5667 83° East 530 610 39,000  Level Gander Center
Sat 01:10:25 AM 60.4667 -56.2500 72° East 540 621 39,000  Level Gander Center
Sat 01:11:25 AM 60.5000 -55.9500 77° East 530 610 39,000  Level Gander Center
Sat 01:12:25 AM 60.5167 -55.6333 84° East 530 610 39,000  Level Gander Center
Sat 01:13:25 AM 60.5500 -55.3667 76° East 530 610 39,000  Level Gander Center
Sat 01:14:25 AM 60.5833 -55.0500 78° East 530 610 39,000  Level Gander Center
Sat 01:15:25 AM 60.6167 -54.7667 76° East 530 610 39,000  Level Gander Center
Sat 01:16:25 AM 60.6333 -54.4667 83° East 530 610 39,000  Level Gander Center
Sat 01:17:25 AM 60.6667 -54.1833 76° East 530 610 39,000  Level Gander Center
Sat 01:18:25 AM 60.6833 -53.9000 83° East 530 610 39,000  Level Gander Center
Sat 01:19:25 AM 60.7167 -53.6000 77° East 530 610 39,000  Level Gander Center
Sat 01:20:25 AM 60.7500 -53.3167 76° East 530 610 39,000  Level Gander Center
Sat 01:21:25 AM 60.7667 -53.0000 84° East 540 621 39,000  Level Gander Center
Sat 01:22:25 AM 60.8000 -52.6833 78° East 540 621 39,000  Level Gander Center
Sat 01:23:25 AM 60.8167 -52.4000 83° East 540 621 39,000  Level Gander Center
Sat 01:24:25 AM 60.8500 -52.0833 78° East 540 621 39,000  Level Gander Center
Sat 01:25:25 AM 60.8667 -51.8167 83° East 540 621 39,000  Level Gander Center
Sat 01:26:51 AM 60.9000 -51.3500 81° East 540 621 39,000  Level Gander Center
Sat 01:27:51 AM 60.9167 -51.0667 83° East 540 621 39,000  Level Gander Center
Sat 01:28:51 AM 60.9333 -50.7500 84° East 540 621 39,000  Level Gander Center
Sat 01:29:51 AM 60.9667 -50.4667 76° East 540 621 39,000  Level Gander Center
Sat 01:30:51 AM 60.9833 -50.1500 84° East 540 621 39,000  Level Gander Center
Sat 01:31:51 AM 61.0000 -49.8667 83° East 530 610 39,000  Level Gander Center
Sat 01:32:51 AM 61.0500 -49.5667 71° East 540 621 39,000  Level Gander Center
Sat 01:33:51 AM 61.0833 -49.2833 76° East 540 621 39,000  Level Gander Center
Sat 01:34:51 AM 61.1167 -49.0000 76° East 530 610 39,000  Level Gander Center
Sat 01:35:51 AM 61.1500 -48.7000 77° East 530 610 39,000  Level Gander Center
Sat 01:36:51 AM 61.2000 -48.3667 73° East 530 610 39,000  Level Gander Center
Sat 01:37:51 AM 61.2333 -48.0667 77° East 530 610 39,000  Level Gander Center
Sat 01:38:51 AM 61.2667 -47.7833 76° East 530 610 39,000  Level Gander Center
Sat 01:39:51 AM 61.3167 -47.4833 71° East 540 621 39,000  Level Gander Center
Sat 01:40:51 AM 61.3500 -47.1833 77° East 540 621 39,000  Level Gander Center
Sat 01:41:51 AM 61.3667 -46.9000 83° East 540 621 39,000  Level Gander Center
Sat 01:42:51 AM 61.4000 -46.6000 77° East 540 621 39,000  Level Gander Center
Sat 01:43:51 AM 61.4500 -46.3000 71° East 540 621 39,000  Level Gander Center
Sat 01:44:51 AM 61.4833 -46.0000 77° East 540 621 39,000  Level Gander Center
Sat 01:45:51 AM 61.5167 -45.7000 77° East 540 621 39,000  Level Gander Center
Sat 01:46:51 AM 61.5500 -45.4000 77° East 540 621 39,000  Level Gander Center
Sat 01:47:51 AM 61.5833 -45.0500 79° East 540 621 39,000  Level Gander Center
Sat 01:48:51 AM 61.6000 -44.7667 83° East 530 610 39,000  Level Gander Center
Sat 01:49:51 AM 61.6333 -44.4667 77° East 530 610 39,000  Level Gander Center
Sat 01:50:51 AM 61.6667 -44.1833 76° East 540 621 39,000  Level Gander Center
Sat 01:51:51 AM 61.6833 -43.8500 84° East 540 621 39,000  Level Gander Center
Sat 01:52:51 AM 61.7167 -43.5500 77° East 540 621 39,000  Level Gander Center
Sat 01:53:51 AM 61.7333 -43.2500 83° East 530 610 39,000  Level Gander Center
Sat 01:54:51 AM 61.7667 -42.9500 77° East 540 621 39,000  Level Gander Center
Sat 01:55:51 AM 61.7833 -42.6500 83° East 540 621 39,000  Level Gander Center
Sat 01:56:51 AM 61.8167 -42.3333 77° East 540 621 39,000  Level Gander Center
Sat 01:57:51 AM 61.8500 -42.0333 77° East 540 621 39,000  Level Gander Center
Sat 01:58:51 AM 61.8667 -41.7167 83° East 540 621 39,000  Level Gander Center
Sat 01:59:51 AM 61.9000 -41.4167 77° East 540 621 39,000  Level Gander Center
Sat 02:00:51 AM 61.9000 -41.0833 90° East 540 621 39,000  Level Gander Center
Sat 02:01:51 AM 61.9167 -40.7833 83° East 540 621 39,000  Level Gander Center
Sat 02:02:51 AM 61.9500 -40.4667 77° East 540 621 39,000  Level Gander Center
Sat 02:03:51 AM 61.9667 -40.1667 83° East 540 621 39,000  Level Gander Center
Sat 02:04:51 AM 61.9833 -39.8500 83° East 540 621 39,000  Level Gander Center
Sat 02:05:51 AM 62.0000 -39.5500 83° East 540 621 39,000  Level Gander Center
Sat 02:06:51 AM 62.0000 -39.2500 90° East 540 621 39,000  Level Gander Center
Sat 02:07:51 AM 62.0167 -38.9167 84° East 540 621 39,000  Level Gander Center
Sat 02:08:51 AM 62.0167 -38.6167 90° East 540 621 39,000  Level Gander Center
Sat 02:09:51 AM 62.0333 -38.3000 83° East 540 621 39,000  Level Gander Center
Sat 02:10:51 AM 62.0333 -37.9667 90° East 540 621 39,000  Level Gander Center
Sat 02:11:51 AM 62.0500 -37.6667 83° East 540 621 39,000  Level Gander Center
Sat 02:12:51 AM 62.0500 -37.3333 90° East 540 621 39,000  Level Gander Center
Sat 02:13:51 AM 62.0667 -37.0167 83° East 540 621 39,000  Level Gander Center
Sat 02:14:51 AM 62.0667 -36.7167 90° East 540 621 39,000  Level Gander Center
Sat 02:15:51 AM 62.0667 -36.4167 90° East 540 621 39,000  Level Gander Center
Sat 02:16:51 AM 62.0667 -36.1333 90° East 540 621 39,000  Level Gander Center
Sat 02:18:51 AM 62.0667 -35.4833 90° East 540 621 39,000  Level Gander Center
Sat 02:19:51 AM 62.0667 -35.1333 90° East 550 633 39,000  Level Gander Center
Sat 02:21:00 AM 62.0681 -34.7925 89° East  Level FlightAware Approximate
Sat 02:28:00 AM 62.0591 -32.7181 90° East  Level FlightAware Approximate
Sat 02:29:00 AM 62.0552 -32.4219 91° East  Level FlightAware Approximate
Sat 02:30:00 AM 62.0508 -32.1259 92° East  Level FlightAware Approximate
Sat 02:31:00 AM 62.0457 -31.8299 92° East  Level FlightAware Approximate
Sat 02:32:00 AM 62.0399 -31.5340 92° East  Level FlightAware Approximate
Sat 02:33:00 AM 62.0336 -31.2382 92° East  Level FlightAware Approximate
Sat 02:34:00 AM 62.0266 -30.9426 93° East  Level FlightAware Approximate
Sat 02:35:00 AM 62.0189 -30.6471 93° East  Level FlightAware Approximate
Sat 02:36:00 AM 62.0107 -30.3517 93° East  Level FlightAware Approximate
Sat 02:37:00 AM 62.0018 -30.0565 94° East  Level FlightAware Approximate
Sat 02:37:54 AM 61.9290 -29.6580 108° East 530 610 39,000  Level FlightAware ADS-B
Sat 02:38:00 AM 61.9648 -29.7731 108° East  Level FlightAware Approximate
Sat 02:38:34 AM 61.8980 -29.4570 108° East 531 611 39,000  Level FlightAware ADS-B
Sat 02:39:17 AM 61.8660 -29.2530 108° East 531 611 39,000  Level FlightAware ADS-B
Sat 02:40:00 AM 61.8310 -29.0370 109° East 531 611 39,000  Level FlightAware ADS-B
Sat 02:40:41 AM 61.7990 -28.8390 109° East 531 611 39,000  Level FlightAware ADS-B
Sat 02:41:22 AM 61.7670 -28.6400 109° East 531 611 39,000  Level FlightAware ADS-B
Sat 02:42:07 AM 61.7350 -28.4430 109° East 530 610 39,000  Level FlightAware ADS-B
Sat 02:42:46 AM 61.7080 -28.2810 109° East 530 610 39,000  Level FlightAware ADS-B
Sat 02:43:21 AM 61.6840 -28.1350 109° East 530 610 39,000  Level FlightAware ADS-B
Sat 02:44:09 AM 61.6520 -27.9360 109° East 530 610 39,000  Level FlightAware ADS-B
Sat 02:44:52 AM 61.5950 -27.6260 111° Southeast 526 605 39,000  Level FlightAware ADS-B
Sat 02:47:00 AM 61.4931 -27.0424 110° East  Level FlightAware Approximate
Sat 02:47:09 AM 61.4960 -27.0570 110° East 527 606 39,000  Level FlightAware ADS-B
Sat 02:47:48 AM 61.4490 -26.8000 111° Southeast 530 610 39,000  Level FlightAware ADS-B
Sat 02:48:37 AM 61.4140 -26.5990 110° East 530 610 39,000  Level FlightAware ADS-B
Sat 02:49:18 AM 61.3670 -26.3580 112° Southeast 530 610 39,000  Level FlightAware ADS-B
Sat 02:49:55 AM 61.3340 -26.1780 111° Southeast 529 609 39,000  Level FlightAware ADS-B
Sat 02:50:57 AM 61.2840 -25.9100 111° Southeast 528 608 39,000  Level FlightAware ADS-B
Sat 02:51:33 AM 61.2570 -25.7650 111° Southeast 528 608 39,000  Level FlightAware ADS-B
Sat 02:52:22 AM 61.2200 -25.5670 111° Southeast 528 608 39,000  Level FlightAware ADS-B
Sat 02:53:03 AM 61.1630 -25.2880 113° Southeast 533 613 39,000  Level FlightAware ADS-B
Sat 02:53:45 AM 61.1250 -25.0970 112° Southeast 533 613 39,000  Level FlightAware ADS-B
Sat 02:54:29 AM 61.0830 -24.8860 112° Southeast 534 615 39,000  Level FlightAware ADS-B
Sat 02:55:05 AM 61.0490 -24.7170 113° Southeast 533 613 39,000  Level FlightAware ADS-B
Sat 02:55:51 AM 61.0050 -24.4990 113° Southeast 536 617 39,000  Level FlightAware ADS-B
Sat 02:56:31 AM 60.9670 -24.3130 113° Southeast 540 621 39,000  Level FlightAware ADS-B
Sat 02:57:15 AM 60.9230 -24.1020 113° Southeast 542 624 39,000  Level FlightAware ADS-B
Sat 02:57:54 AM 60.8890 -23.9360 113° Southeast 542 624 39,000  Level FlightAware ADS-B
Sat 02:58:49 AM 60.8350 -23.6820 113° Southeast 543 625 39,000  Level FlightAware ADS-B
Sat 02:59:38 AM 60.7940 -23.4840 113° Southeast 543 625 39,000  Level FlightAware ADS-B
Sat 03:02:00 AM 60.6629 -22.8678 113° Southeast  Level FlightAware Approximate
Sat 03:02:40 AM 60.5930 -22.5740 113° Southeast 546 628 39,000  Level FlightAware ADS-B
Sat 03:03:26 AM 60.5450 -22.3620 115° Southeast 544 626 39,000  Level FlightAware ADS-B
Sat 03:04:09 AM 60.5010 -22.1660 114° Southeast 544 626 39,000  Level FlightAware ADS-B
Sat 03:04:44 AM 60.4690 -22.0240 115° Southeast 543 625 39,000  Level FlightAware ADS-B
Sat 03:05:27 AM 60.4190 -21.8110 115° Southeast 544 626 39,000  Level FlightAware ADS-B
Sat 03:06:30 AM 60.3550 -21.5360 115° Southeast 543 625 39,000  Level FlightAware ADS-B
Sat 03:07:06 AM 60.3230 -21.3950 115° Southeast 543 625 39,000  Level FlightAware ADS-B
Sat 03:07:55 AM 60.2790 -21.2040 115° Southeast 543 625 39,000  Level FlightAware ADS-B
Sat 03:08:33 AM 60.2440 -21.0550 115° Southeast 543 625 39,000  Level FlightAware ADS-B
Sat 03:09:33 AM 60.1900 -20.8220 115° Southeast 543 625 39,000  Level FlightAware ADS-B
Sat 03:10:07 AM 60.1590 -20.6890 115° Southeast 543 625 39,000  Level FlightAware ADS-B
Sat 03:10:55 AM 60.1160 -20.5030 115° Southeast 543 625 39,000  Level FlightAware ADS-B
Sat 03:11:38 AM 60.0770 -20.3360 115° Southeast 543 625 39,000  Level FlightAware ADS-B
Sat 03:12:14 AM 60.0450 -20.1960 115° Southeast 543 625 39,000  Level FlightAware ADS-B
Sat 03:13:02 AM 60.0010 -20.0110 115° Southeast 543 625 39,000  Level FlightAware ADS-B
Sat 03:13:39 AM 59.9680 -19.8670 115° Southeast 543 625 39,000  Level FlightAware ADS-B
Sat 03:14:27 AM 59.9240 -19.6820 115° Southeast 543 625 39,000  Level FlightAware ADS-B
Sat 03:15:03 AM 59.8920 -19.5430 115° Southeast 543 625 39,000  Level FlightAware ADS-B
Sat 03:15:51 AM 59.8490 -19.3580 115° Southeast 543 625 39,000  Level FlightAware ADS-B
Sat 03:18:00 AM 59.6932 -18.8523 121° Southeast  Level FlightAware Approximate
Sat 03:19:00 AM 59.6201 -18.6186 122° Southeast  Level FlightAware Approximate
Sat 03:20:00 AM 59.5466 -18.3860 122° Southeast  Level FlightAware Approximate
Sat 03:21:00 AM 59.4726 -18.1544 122° Southeast  Level FlightAware Approximate
Sat 03:22:00 AM 59.3983 -17.9239 122° Southeast  Level FlightAware Approximate
Sat 03:23:00 AM 59.3235 -17.6943 122° Southeast  Level FlightAware Approximate
Sat 03:24:00 AM 59.2484 -17.4657 123° Southeast  Level FlightAware Approximate
Sat 03:25:00 AM 59.1728 -17.2382 123° Southeast  Level FlightAware Approximate
Sat 03:26:00 AM 59.0969 -17.0117 123° Southeast  Level FlightAware Approximate
Sat 03:27:00 AM 59.0205 -16.7861 123° Southeast  Level FlightAware Approximate
Sat 03:28:00 AM 58.9438 -16.5616 123° Southeast  Level FlightAware Approximate
Sat 03:29:00 AM 58.8667 -16.3381 124° Southeast  Level FlightAware Approximate
Sat 03:30:00 AM 58.7892 -16.1155 124° Southeast  Level FlightAware Approximate
Sat 03:31:00 AM 58.7113 -15.8940 124° Southeast  Level FlightAware Approximate
Sat 03:32:00 AM 58.6330 -15.6735 124° Southeast  Level FlightAware Approximate
Sat 03:33:00 AM 58.5544 -15.4539 124° Southeast  Level FlightAware Approximate
Sat 03:34:00 AM 58.4754 -15.2353 125° Southeast  Level FlightAware Approximate
Sat 03:35:00 AM 58.3960 -15.0177 125° Southeast  Level FlightAware Approximate
Sat 03:36:00 AM 58.3163 -14.8011 125° Southeast  Level FlightAware Approximate
Sat 03:37:00 AM 58.2362 -14.5855 125° Southeast  Level FlightAware Approximate
Sat 03:38:00 AM 58.1557 -14.3708 125° Southeast  Level FlightAware Approximate
Sat 03:39:00 AM 58.0748 -14.1571 126° Southeast  Level FlightAware Approximate
Sat 03:40:00 AM 57.9937 -13.9444 126° Southeast  Level FlightAware Approximate
Sat 03:41:00 AM 57.9121 -13.7326 126° Southeast  Level FlightAware Approximate
Sat 03:42:00 AM 57.8302 -13.5218 126° Southeast  Level FlightAware Approximate
Sat 03:43:00 AM 57.7480 -13.3120 126° Southeast  Level FlightAware Approximate
Sat 03:44:00 AM 57.6654 -13.1031 126° Southeast  Level FlightAware Approximate
Sat 03:45:00 AM 57.5825 -12.8951 127° Southeast  Level FlightAware Approximate
Sat 03:46:00 AM 57.4992 -12.6882 127° Southeast  Level FlightAware Approximate
Sat 03:47:00 AM 57.4156 -12.4821 127° Southeast  Level FlightAware Approximate
Sat 03:48:00 AM 57.3316 -12.2770 127° Southeast  Level FlightAware Approximate
Sat 03:49:00 AM 57.2474 -12.0728 127° Southeast  Level FlightAware Approximate
Sat 03:50:00 AM 57.1628 -11.8696 127° Southeast  Level FlightAware Approximate
Sat 03:50:45 AM 57.1500 -10.4180 128° Southeast 543 625 39,000  Level FlightAware ADS-B
Sat 03:51:00 AM 57.0779 -11.6673 128° Southeast  Level FlightAware Approximate
Sat 03:51:30 AM 57.0950 -10.2300 118° Southeast 545 627 39,000  Level FlightAware ADS-B
Sat 03:52:11 AM 57.0460 -10.0680 119° Southeast 546 628 39,000  Level FlightAware ADS-B
Sat 03:52:55 AM 56.9900 -9.8810 119° Southeast 541 623 39,000  Level FlightAware ADS-B
Sat 03:53:32 AM 56.9480 -9.7420 119° Southeast 539 620 39,000  Level FlightAware ADS-B
Sat 03:54:13 AM 56.8960 -9.5700 119° Southeast 537 618 39,000  Level FlightAware ADS-B
Sat 03:54:57 AM 56.8420 -9.3940 119° Southeast 536 617 39,000  Level FlightAware ADS-B
Sat 03:55:37 AM 56.7930 -9.2360 119° Southeast 537 618 39,000  Level FlightAware ADS-B
Sat 03:56:17 AM 56.7430 -9.0750 119° Southeast 538 619 39,000  Level FlightAware ADS-B
Sat 03:57:08 AM 56.6810 -8.8760 119° Southeast 539 620 39,000  Level FlightAware ADS-B
Sat 03:57:38 AM 56.6403 -8.7492 119° Southeast 482 555 39,000  Level FlightAware UK
Sat 03:57:43 AM 56.6350 -8.7310 119° Southeast 538 619 39,000  Level FlightAware ADS-B
Sat 03:58:28 AM 56.5810 -8.5610 120° Southeast 541 623 39,000  Level FlightAware ADS-B
Sat 03:59:08 AM 56.5279 -8.3966 120° Southeast 482 555 39,000  Level FlightAware UK
Sat 03:59:13 AM 56.5240 -8.3850 120° Southeast 541 623 39,000  Level FlightAware ADS-B
Sat 03:59:48 AM 56.4800 -8.2480 120° Southeast 541 623 39,000  Level FlightAware ADS-B
Sat 04:00:33 AM 56.4230 -8.0730 120° Southeast 542 624 39,000  Level FlightAware ADS-B
Sat 04:01:19 AM 56.3650 -7.8950 120° Southeast 543 625 39,000  Level FlightAware ADS-B
Sat 04:01:58 AM 56.3150 -7.7440 121° Southeast 543 625 39,000  Level FlightAware ADS-B
Sat 04:02:32 AM 56.2687 -7.6024 121° Southeast 482 555 39,000  Level FlightAware UK
Sat 04:02:38 AM 56.2650 -7.5920 121° Southeast 540 621 39,000  Level FlightAware ADS-B
Sat 04:03:17 AM 56.2140 -7.4390 121° Southeast 540 621 39,000  Level FlightAware ADS-B
Sat 04:04:03 AM 56.1520 -7.2541 121° Southeast 482 555 39,000  Level FlightAware UK
Sat 04:04:07 AM 56.1500 -7.2490 121° Southeast 539 620 39,000  Level FlightAware ADS-B
Sat 04:04:46 AM 56.0990 -7.0950 121° Southeast 538 619 39,000  Level FlightAware ADS-B
Sat 04:05:28 AM 56.0470 -6.9430 121° Southeast 539 620 39,000  Level FlightAware ADS-B
Sat 04:06:03 AM 55.9959 -6.7951 121° Southeast 482 555 39,000  Level FlightAware UK
Sat 04:06:11 AM 55.9880 -6.7720 121° Southeast 539 620 39,000  Level FlightAware ADS-B
Sat 04:06:52 AM 55.9340 -6.6160 122° Southeast 538 619 39,000  Level FlightAware ADS-B
Sat 04:07:33 AM 55.8778 -6.4534 122° Southeast 480 552 39,000  Level FlightAware UK
Sat 04:07:36 AM 55.8750 -6.4470 122° Southeast 537 618 39,000  Level FlightAware ADS-B
Sat 04:08:12 AM 55.8290 -6.3150 122° Southeast 542 624 39,000  Level FlightAware ADS-B
Sat 04:08:58 AM 55.7720 -6.1510 122° Southeast 542 624 39,000  Level FlightAware ADS-B
Sat 04:09:33 AM 55.7187 -6.0009 122° Southeast 478 550 39,000  Level FlightAware UK
Sat 04:09:41 AM 55.7100 -5.9770 122° Southeast 544 626 39,000  Level FlightAware ADS-B
Sat 04:10:15 AM 55.6625 -5.8430 122° Southeast 482 555 39,000  Level FlightAware UK
Sat 04:10:21 AM 55.6560 -5.8250 122° Southeast 545 627 39,000  Level FlightAware ADS-B
Sat 04:11:01 AM 55.6030 -5.6760 122° Southeast 545 627 39,000  Level FlightAware ADS-B
Sat 04:11:47 AM 55.5470 -5.5210 123° Southeast 545 627 39,000  Level FlightAware ADS-B
Sat 04:12:32 AM 55.4800 -5.3380 123° Southeast 543 625 39,000  Level FlightAware ADS-B
Sat 04:13:06 AM 55.4350 -5.2150 123° Southeast 542 624 39,000  Level FlightAware ADS-B
Sat 04:13:52 AM 55.3710 -5.0400 123° Southeast 542 624 39,000 -133 Level FlightAware ADS-B
Sat 04:14:36 AM 55.3080 -4.8690 123° Southeast 547 629 38,800 -458 Descending FlightAware ADS-B
Sat 04:16:03 AM 55.1853 -4.5424 123° Southeast 482 555 38,000 -390 Descending FlightAware UK
Sat 04:16:39 AM 55.1348 -4.4089 123° Southeast 480 552 38,000  Level FlightAware UK
Sat 04:16:56 AM 55.1120 -4.3490 123° Southeast 549 632 38,000  Level FlightAware ADS-B
Sat 04:17:40 AM 55.0500 -4.1860 124° Southeast 550 633 38,000  Level FlightAware ADS-B
Sat 04:18:24 AM 54.9890 -4.0270 124° Southeast 550 633 38,000  Level FlightAware ADS-B
Sat 04:19:06 AM 54.9300 -3.8740 124° Southeast 550 633 38,000  Level FlightAware ADS-B
Sat 04:19:45 AM 54.8724 -3.7254 124° Southeast 480 552 38,000  Level FlightAware UK
Sat 04:19:46 AM 54.8730 -3.7260 124° Southeast 550 633 38,000  Level FlightAware ADS-B
Sat 04:20:21 AM 54.8196 -3.5962 124° Southeast 482 555 38,000  Level FlightAware UK
Sat 04:20:28 AM 54.8100 -3.5760 124° Southeast 551 634 38,000  Level FlightAware ADS-B
Sat 04:21:12 AM 54.7330 -3.4360 134° Southeast 549 632 38,000  Level FlightAware ADS-B
Sat 04:21:52 AM 54.6560 -3.3280 141° Southeast 547 629 38,000  Level FlightAware ADS-B
Sat 04:22:28 AM 54.5775 -3.2411 141° Southeast 484 557 38,000  Level FlightAware UK
Sat 04:22:36 AM 54.5610 -3.2250 141° Southeast 544 626 38,000  Level FlightAware ADS-B
Sat 04:23:18 AM 54.4650 -3.1500 156° South 538 619 38,000  Level FlightAware ADS-B
Sat 04:23:54 AM 54.3830 -3.0890 156° South 539 620 38,000  Level FlightAware ADS-B
Sat 04:23:58 AM 54.3733 -3.0818 156° South 480 552 38,000  Level FlightAware UK
Sat 04:24:28 AM 54.3049 -3.0305 156° South 480 552 38,000  Level FlightAware UK
Sat 04:24:40 AM 54.2780 -3.0110 156° South 539 620 38,000  Level FlightAware ADS-B
Sat 04:25:10 AM 54.2091 -2.9600 156° South 476 548 38,000  Level FlightAware UK
Sat 04:25:24 AM 54.1790 -2.9380 156° South 530 610 38,000  Level FlightAware ADS-B
Sat 04:26:06 AM 54.0840 -2.8680 157° South 527 606 38,000  Level FlightAware ADS-B
Sat 04:26:46 AM 53.9990 -2.8060 157° South 527 606 38,000  Level FlightAware ADS-B
Sat 04:27:31 AM 53.8970 -2.7290 156° South 529 609 38,000  Level FlightAware ADS-B
Sat 04:28:04 AM 53.8213 -2.6659 156° South 472 543 38,000  Level FlightAware UK
Sat 04:28:12 AM 53.8040 -2.6520 156° South 529 609 38,000  Level FlightAware ADS-B
Sat 04:28:46 AM 53.7288 -2.5911 156° South 472 543 38,000  Level FlightAware UK
Sat 04:28:53 AM 53.7140 -2.5800 156° South 529 609 38,000  Level FlightAware ADS-B
Sat 04:29:34 AM 53.6240 -2.5080 155° Southeast 529 609 38,000  Level FlightAware ADS-B
Sat 04:30:12 AM 53.5440 -2.4460 155° Southeast 529 609 38,000  Level FlightAware ADS-B
Sat 04:30:58 AM 53.4380 -2.3620 155° Southeast 529 609 38,000  Level FlightAware ADS-B
Sat 04:31:34 AM 53.3570 -2.2984 155° Southeast 472 543 38,000  Level FlightAware UK
Sat 04:31:38 AM 53.3530 -2.2960 155° Southeast 528 608 38,000  Level FlightAware ADS-B
Sat 04:32:22 AM 53.2520 -2.2170 155° Southeast 528 608 38,000  Level FlightAware ADS-B
Sat 04:33:00 AM 53.1710 -2.1540 155° Southeast 528 608 38,000  Level FlightAware ADS-B
Sat 04:33:46 AM 53.0680 -2.0750 155° Southeast 527 606 38,000  Level FlightAware ADS-B
Sat 04:34:30 AM 52.9690 -1.9980 155° Southeast 527 606 38,000  Level FlightAware ADS-B
Sat 04:35:18 AM 52.8660 -1.9190 155° Southeast 527 606 38,000  Level FlightAware ADS-B
Sat 04:36:02 AM 52.7680 -1.8450 155° Southeast 528 608 38,000  Level FlightAware ADS-B
Sat 04:36:40 AM 52.6797 -1.7781 155° Southeast 470 541 38,000  Level FlightAware UK
Sat 04:36:48 AM 52.6650 -1.7670 155° Southeast 529 609 38,000  Level FlightAware ADS-B
Sat 04:37:32 AM 52.5690 -1.6950 155° Southeast 528 608 38,000  Level FlightAware ADS-B
Sat 04:38:12 AM 52.4780 -1.6270 156° South 526 605 38,000  Level FlightAware ADS-B
Sat 04:38:56 AM 52.3860 -1.5580 155° Southeast 526 605 38,000  Level FlightAware ADS-B
Sat 04:39:32 AM 52.3070 -1.4800 149° Southeast 526 605 38,000  Level FlightAware ADS-B
Sat 04:40:18 AM 52.2160 -1.3830 147° Southeast 527 606 38,000  Level FlightAware ADS-B
Sat 04:40:58 AM 52.1340 -1.2950 147° Southeast 526 605 38,000  Level FlightAware ADS-B
Sat 04:41:35 AM 52.0555 -1.2107 147° Southeast 470 541 38,000  Level FlightAware UK
Sat 04:41:42 AM 52.0430 -1.1980 147° Southeast 528 608 38,000  Level FlightAware ADS-B
Sat 04:42:23 AM 51.9610 -1.1100 147° Southeast 528 608 38,000  Level FlightAware ADS-B
Sat 04:43:05 AM 51.8714 -1.0159 147° Southeast 468 539 38,000  Level FlightAware UK
Sat 04:43:05 AM 51.8750 -1.0190 147° Southeast 528 608 38,000  Level FlightAware ADS-B
Sat 04:43:41 AM 51.7979 -0.9385 147° Southeast 468 539 38,000  Level FlightAware UK
Sat 04:43:49 AM 51.7860 -0.9260 147° Southeast 527 606 38,000  Level FlightAware ADS-B
Sat 04:44:23 AM 51.7123 -0.8487 147° Southeast 468 539 38,000  Level FlightAware UK
Sat 04:44:31 AM 51.6970 -0.8330 147° Southeast 528 608 38,000  Level FlightAware ADS-B
Sat 04:45:05 AM 51.6330 -0.7660 147° Southeast 529 609 38,000  Level FlightAware ADS-B
Sat 04:45:35 AM 51.5641 -0.6947 147° Southeast 468 539 38,000  Level FlightAware UK
Sat 04:45:51 AM 51.5360 -0.6650 147° Southeast 529 609 38,000  Level FlightAware ADS-B
Sat 04:46:33 AM 51.4520 -0.5790 147° Southeast 529 609 38,000  Level FlightAware ADS-B
Sat 04:47:15 AM 51.3620 -0.4860 147° Southeast 528 608 38,000  Level FlightAware ADS-B
Sat 04:47:17 AM 51.3541 -0.4779 147° Southeast 470 541 38,000 -261 Level FlightAware UK
Sat 04:48:01 AM 51.2700 -0.3920 147° Southeast 530 610 37,800 -1,071 Descending FlightAware ADS-B
Sat 04:48:41 AM 51.1814 -0.3022 147° Southeast 464 534 36,500 -1,756 Descending FlightAware UK
Sat 04:48:42 AM 51.1840 -0.3050 147° Southeast 517 595 36,600 -1,500 Climbing FlightAware ADS-B
Sat 04:49:17 AM 51.1082 -0.2273 147° Southeast 462 532 35,600 -1,650 Descending FlightAware UK
Sat 04:49:22 AM 51.1030 -0.2220 147° Southeast 516 594 35,500 -1,622 Descending FlightAware ADS-B
Sat 04:49:54 AM 51.0345 -0.1530 147° Southeast 458 527 34,600 -1,538 Descending FlightAware UK
Sat 04:50:01 AM 51.0230 -0.1410 147° Southeast 514 592 34,500 -1,421 Descending FlightAware ADS-B
Sat 04:50:32 AM 50.9620 -0.0800 148° Southeast 517 595 33,700 -1,342 Descending FlightAware ADS-B
Sat 04:51:17 AM 50.8700 0.0120 148° Southeast 529 609 32,800 -1,200 Descending FlightAware ADS-B
Sat 04:51:57 AM 50.7880 0.0940 148° Southeast 515 593 32,000 -1,151 Descending FlightAware ADS-B
Sat 04:52:30 AM 50.7201 0.1723 148° Southeast 454 522 31,400 -933 Descending FlightAware UK
Sat 04:52:42 AM 50.7020 0.1970 148° Southeast 507 583 31,300 -923 Descending FlightAware ADS-B
Sat 04:53:22 AM 50.6280 0.2920 141° Southeast 512 589 30,600 -987 Descending FlightAware ADS-B
Sat 04:54:01 AM 50.5550 0.3840 141° Southeast 500 575 30,000 -1,050 Descending FlightAware ADS-B
Sat 04:54:42 AM 50.4880 0.4690 141° Southeast 501 577 29,200 -2,148 Descending FlightAware ADS-B
Sat 04:55:22 AM 50.4120 0.5650 141° Southeast 487 560 27,100 -3,250 Descending FlightAware ADS-B
Sat 04:55:30 AM 50.3935 0.5880 141° Southeast 428 493 26,600 -1,375 Descending FlightAware UK
Sat 04:56:10 AM 50.3250 0.6690 143° Southeast 482 555 26,000 -583 Descending FlightAware ADS-B
Sat 04:56:42 AM 50.2624 0.7329 143° Southeast 418 481 25,900  Descending FlightAware UK
Sat 04:56:55 AM 50.2460 0.7510 143° Southeast 481 554 26,000 113 Climbing FlightAware ADS-B
Sat 04:57:35 AM 50.1690 0.8330 146° Southeast 473 544 26,000 -375 Level FlightAware ADS-B
Sat 04:58:15 AM 50.0980 0.9090 146° Southeast 471 542 25,500 -1,291 Descending FlightAware ADS-B
Sat 04:58:54 AM 50.0214 0.9914 146° Southeast 408 470 24,300 -1,733 Descending FlightAware UK
Sat 04:59:00 AM 50.0150 0.9990 146° Southeast 473 544 24,200 -1,463 Descending FlightAware ADS-B
Sat 04:59:35 AM 49.9560 1.0620 146° Southeast 469 540 23,300 -1,579 Descending FlightAware ADS-B
Sat 05:00:35 AM 49.8460 1.1780 146° Southeast 453 521 21,700 -1,645 Descending FlightAware ADS-B
Sat 05:00:37 AM 49.8396 1.1849 146° Southeast 392 451 21,600 -1,500 Descending FlightAware UK
Sat 05:01:07 AM 49.7874 1.2397 146° Southeast 390 449 20,900 -1,263 Descending FlightAware UK
Sat 05:01:15 AM 49.7760 1.2520 146° Southeast 447 514 20,800 -1,245 Descending FlightAware ADS-B
Sat 05:02:00 AM 49.7000 1.3320 146° Southeast 444 511 19,800 -1,341 Descending FlightAware ADS-B
Sat 05:02:40 AM 49.6320 1.4040 146° Southeast 432 497 18,900 -1,425 Descending FlightAware ADS-B
Sat 05:03:20 AM 49.5650 1.4740 146° Southeast 429 494 17,900 -1,694 Descending FlightAware ADS-B
Sat 05:04:05 AM 49.4940 1.5480 146° Southeast 413 475 16,500 -1,952 Descending FlightAware ADS-B
Sat 05:04:43 AM 49.4287 1.6152 146° Southeast 354 407 15,200 -2,267 Descending FlightAware UK
Sat 05:04:50 AM 49.4210 1.6240 146° Southeast 410 472 14,800 -2,286 Descending FlightAware ADS-B
Sat 05:05:25 AM 49.3670 1.6790 146° Southeast 385 443 13,600 -1,875 Descending FlightAware ADS-B
Sat 05:06:10 AM 49.3070 1.7440 145° Southeast 353 406 12,300 -1,700 Descending FlightAware ADS-B
Sat 05:06:25 AM 49.2930 1.7780 122° Southeast 343 395 11,900 -1,200 Descending FlightAware ADS-B
Sat 05:06:35 AM 49.2900 1.7970 104° East 331 381 11,800 -700 Descending FlightAware ADS-B
Sat 05:07:25 AM 49.2855 1.9210 104° East 296 341 11,200 -600 Descending FlightAware UK
Sat 05:07:25 AM 49.2850 1.9130 104° East 322 371 11,300 -500 Climbing FlightAware ADS-B
Sat 05:08:01 AM 49.2804 2.0022 104° East 1 1 10,900 -450 Descending FlightAware UK
Sat 05:08:05 AM 49.2800 2.0080 104° East 318 366 11,000 136 Climbing FlightAware ADS-B
Sat 05:08:45 AM 49.2760 2.0960 94° East 317 365 11,000  Level FlightAware ADS-B
Sat 05:09:30 AM 49.2710 2.1960 94° East 317 365 11,000  Level FlightAware ADS-B
Sat 05:10:10 AM 49.2670 2.2800 94° East 318 366 11,000  Level FlightAware ADS-B
Sat 05:10:55 AM 49.2620 2.3820 94° East 297 342 11,000 -218 Level FlightAware ADS-B
Sat 05:12:00 AM 49.2550 2.5140 95° East 278 320 10,600 -655 Descending FlightAware ADS-B
Sat 05:12:45 AM 49.2450 2.6030 100° East 279 321 9,800 -1,014 Descending FlightAware ADS-B
Sat 05:13:11 AM 49.2390 2.6510 101° East 280 322 9,400 -873 Descending FlightAware ADS-B
Sat 05:13:40 AM 49.2330 2.7070 99° East 272 313 9,000 -444 Descending FlightAware ADS-B
Sat 05:14:05 AM 49.2270 2.7560 101° East 270 311 9,000  Level FlightAware ADS-B
Sat 05:14:20 AM 49.2230 2.7850 102° East 270 311 9,000  Level FlightAware ADS-B
Sat 05:14:50 AM 49.2170 2.8360 100° East 267 307 9,000 -400 Level FlightAware ADS-B
Sat 05:15:35 AM 49.2070 2.9240 100° East 263 303 8,500 -771 Descending FlightAware ADS-B
Sat 05:16:00 AM 49.2010 2.9680 102° East 266 306 8,100 -764 Descending FlightAware ADS-B
Sat 05:16:30 AM 49.1950 3.0160 101° East 259 298 7,800 -873 Descending FlightAware ADS-B
Sat 05:16:55 AM 49.1880 3.0690 101° East 254 292 7,300 -1,200 Descending FlightAware ADS-B
Sat 05:17:05 AM 49.1830 3.0830 119° Southeast 259 298 7,100 -1,200 Descending FlightAware ADS-B
Sat 05:17:25 AM 49.1620 3.1060 144° Southeast 258 297 6,700 -1,067 Descending FlightAware ADS-B
Sat 05:17:50 AM 49.1340 3.1180 164° South 255 293 6,300 -1,091 Descending FlightAware ADS-B
Sat 05:18:20 AM 49.0960 3.1210 177° South 261 300 5,700 -1,091 Descending FlightAware ADS-B
Sat 05:18:45 AM 49.0690 3.1080 198° South 237 273 5,300 -750 Descending FlightAware ADS-B
Sat 05:19:00 AM 49.0590 3.0910 228° Southwest 225 259 5,200 -800 Descending FlightAware ADS-B
Sat 05:19:15 AM 49.0530 3.0690 247° West 221 254 4,900 -585 Descending FlightAware ADS-B
Sat 05:19:41 AM 49.0510 3.0300 266° West 222 255 4,800 -133 Descending FlightAware ADS-B
Sat 05:20:00 AM 49.0490 2.9990 264° West 221 254 4,800  Level FlightAware ADS-B
Sat 05:20:25 AM 49.0470 2.9600 266° West 221 254 4,800  Level FlightAware ADS-B
Sat 05:20:50 AM 49.0450 2.9230 265° West 204 235 4,800 -545 Level FlightAware ADS-B
Sat 05:21:20 AM 49.0430 2.8790 266° West 196 226 4,300 -1,100 Descending FlightAware ADS-B
Sat 05:21:50 AM 49.0410 2.8390 266° West 180 207 3,700 -964 Descending FlightAware ADS-B
Sat 05:22:16 AM 49.0400 2.8080 267° West 176 203 3,400 -873 Descending FlightAware ADS-B
Sat 05:22:45 AM 49.0380 2.7720 265° West 174 200 2,900 -1,077 Descending FlightAware ADS-B
Sat 05:22:55 AM 49.0370 2.7590 263° West 173 199 2,700 -933 Descending FlightAware ADS-B
Sat 05:23:30 AM 49.0350 2.7190 266° West 159 183 2,200 -800 Descending FlightAware ADS-B
Sat 05:23:40 AM 49.0340 2.7070 263° West 153 176 2,100 -857 Descending FlightAware ADS-B
Sat 05:24:05 AM 49.0330 2.6810 267° West 145 167 1,700 -800 Descending FlightAware ADS-B
Sat 05:24:40 AM 49.0310 2.6490 265° West 129 148 1,300 -700 Descending FlightAware ADS-B
Sat 05:25:05 AM 49.0300 2.6250 266° West 128 147 1,000 -655 Descending FlightAware ADS-B
Sat 05:25:35 AM 49.0290 2.5980 267° West 131 151 700 -655 Descending FlightAware ADS-B
Sat 05:26:00 AM 49.0280 2.5760 266° West 128 147 400 -655 Descending FlightAware ADS-B
Sat 05:26:30 AM 49.0260 2.5480 264° West 131 151 100 -600 Descending FlightAware ADS-B
Sat 05:26:55 AM 49.0250 2.5330 264° West 55 63 -240 Descending FlightAware ADS-B
Sat 05:27:10 AM 49.0250 2.5290 270° West 25 29  Level FlightAware ADS-B
Sat 05:27:35 AM 49.0240 2.5270 233° Southwest 15 17  Level FlightAware ADS-B
Sat 05:28:15 AM 49.0230 2.5270 180° South  Level FlightAware ADS-B
Sat 05:31:00 AM 49.0000 2.5333 141° Southeast  Level FlightAware Approximate

Login

Don't have an account? Register now (free) for customized features, flight alerts, and more!